createdAt,value
2019-01-30T00:00:16.725Z,3.80
2019-01-30T00:02:42.759Z,3.80
2019-01-30T00:05:08.915Z,3.80
2019-01-30T00:07:35.270Z,3.80
2019-01-30T00:10:01.312Z,3.80
2019-01-30T00:12:27.363Z,3.80
2019-01-30T00:14:53.400Z,3.50
2019-01-30T00:17:19.476Z,3.80
2019-01-30T00:19:45.511Z,3.80
2019-01-30T00:22:11.547Z,3.80
2019-01-30T00:24:37.610Z,3.80
2019-01-30T00:27:03.855Z,3.80
2019-01-30T00:29:29.911Z,3.90
2019-01-30T00:31:55.954Z,3.80
2019-01-30T00:34:21.988Z,3.80
2019-01-30T00:36:48.049Z,3.80
2019-01-30T00:39:14.083Z,3.80
2019-01-30T00:41:40.125Z,3.80
2019-01-30T00:44:06.193Z,3.80
2019-01-30T00:46:32.231Z,3.80
2019-01-30T00:48:58.267Z,3.80
2019-01-30T00:51:24.318Z,3.80
2019-01-30T00:53:50.356Z,3.70
2019-01-30T00:56:16.391Z,3.70
2019-01-30T00:58:42.451Z,3.70
2019-01-30T01:01:08.751Z,3.70
2019-01-30T01:03:35.096Z,3.70
2019-01-30T01:06:01.339Z,3.70
2019-01-30T01:08:28.269Z,3.70
2019-01-30T01:10:54.768Z,3.70
2019-01-30T01:13:20.959Z,3.60
2019-01-30T01:15:47.004Z,3.60
2019-01-30T01:18:13.035Z,3.60
2019-01-30T01:20:39.629Z,3.60
2019-01-30T01:23:05.944Z,3.60
2019-01-30T01:25:32.194Z,3.60
2019-01-30T01:27:58.497Z,3.50
2019-01-30T01:30:28.230Z,3.50
2019-01-30T01:32:54.631Z,3.50
2019-01-30T01:35:20.818Z,3.50
2019-01-30T01:37:46.864Z,3.50
2019-01-30T01:40:14.610Z,3.40
2019-01-30T01:42:40.648Z,3.50
2019-01-30T01:45:15.847Z,3.40
2019-01-30T01:47:41.887Z,3.40
2019-01-30T01:50:11.240Z,3.40
2019-01-30T01:52:37.277Z,3.40
2019-01-30T01:55:06.635Z,3.40
2019-01-30T01:57:32.675Z,3.30
2019-01-30T01:59:58.721Z,3.40
2019-01-30T02:02:25.135Z,3.30
2019-01-30T02:04:51.177Z,3.30
2019-01-30T02:07:17.235Z,3.30
2019-01-30T02:09:43.271Z,3.30
2019-01-30T02:12:09.327Z,3.30
2019-01-30T02:14:35.373Z,3.30
2019-01-30T02:17:01.431Z,3.20
2019-01-30T02:19:27.471Z,3.20
2019-01-30T02:21:53.710Z,3.20
2019-01-30T02:24:19.755Z,3.20
2019-01-30T02:26:45.795Z,3.20
2019-01-30T02:29:11.856Z,3.20
2019-01-30T02:31:37.916Z,3.10
2019-01-30T02:34:03.955Z,3.10
2019-01-30T02:36:30.226Z,3.10
2019-01-30T02:38:56.268Z,3.10
2019-01-30T02:41:22.304Z,3.10
2019-01-30T02:43:48.376Z,3.10
2019-01-30T02:46:14.414Z,3.10
2019-01-30T02:48:40.473Z,3.10
2019-01-30T02:51:06.526Z,3.00
2019-01-30T02:53:32.568Z,3.00
2019-01-30T02:55:58.615Z,3.00
2019-01-30T02:58:24.659Z,3.00
2019-01-30T03:00:58.827Z,3.00
2019-01-30T03:03:18.661Z,3.00
2019-01-30T03:05:44.712Z,2.90
2019-01-30T03:08:10.755Z,2.90
2019-01-30T03:10:36.792Z,2.90
2019-01-30T03:13:03.681Z,2.90
2019-01-30T03:15:30.099Z,2.90
2019-01-30T03:17:56.136Z,2.90
2019-01-30T03:20:28.495Z,2.90
2019-01-30T03:22:57.289Z,2.90
2019-01-30T03:25:24.542Z,2.80
2019-01-30T03:27:50.983Z,2.90
2019-01-30T03:30:22.361Z,2.80
2019-01-30T03:32:48.650Z,2.80
2019-01-30T03:35:14.788Z,2.80
2019-01-30T03:37:41.108Z,2.70
2019-01-30T03:40:12.957Z,2.80
2019-01-30T03:42:39.018Z,2.70
2019-01-30T03:45:07.575Z,2.70
2019-01-30T03:47:33.622Z,2.70
2019-01-30T03:49:59.664Z,2.70
2019-01-30T03:52:26.044Z,2.70
2019-01-30T03:54:52.112Z,2.70
2019-01-30T03:57:18.501Z,2.70
2019-01-30T03:59:44.540Z,2.70
2019-01-30T04:02:10.613Z,2.70
2019-01-30T04:04:36.652Z,2.60
2019-01-30T04:07:03.005Z,2.70
2019-01-30T04:09:29.068Z,2.70
2019-01-30T04:11:55.103Z,2.70
2019-01-30T04:14:21.145Z,2.70
2019-01-30T04:16:47.208Z,2.70
2019-01-30T04:19:13.534Z,2.70
2019-01-30T04:21:39.562Z,2.80
2019-01-30T04:24:05.611Z,2.80
2019-01-30T04:26:32.008Z,2.80
2019-01-30T04:28:58.056Z,2.80
2019-01-30T04:31:24.112Z,2.80
2019-01-30T04:33:50.494Z,2.80
2019-01-30T04:36:16.764Z,2.90
2019-01-30T04:38:43.143Z,2.90
2019-01-30T04:41:09.478Z,2.90
2019-01-30T04:43:35.537Z,2.90
2019-01-30T04:46:01.583Z,3.00
2019-01-30T04:48:27.619Z,3.00
2019-01-30T04:50:53.668Z,3.00
2019-01-30T04:53:19.708Z,3.00
2019-01-30T04:55:45.842Z,3.10
2019-01-30T04:58:12.001Z,3.10
2019-01-30T05:00:58.279Z,3.10
2019-01-30T05:03:24.608Z,3.20
2019-01-30T05:05:50.975Z,3.10
2019-01-30T05:08:17.015Z,3.10
2019-01-30T05:10:43.360Z,3.10
2019-01-30T05:13:09.402Z,3.10
2019-01-30T05:15:35.433Z,3.10
2019-01-30T05:18:01.487Z,3.20
2019-01-30T05:20:27.527Z,3.20
2019-01-30T05:22:53.563Z,3.20
2019-01-30T05:25:19.623Z,3.20
2019-01-30T05:27:45.665Z,3.20
2019-01-30T05:30:17.738Z,3.20
2019-01-30T05:32:43.792Z,3.20
2019-01-30T05:35:09.840Z,3.20
2019-01-30T05:37:35.907Z,3.20
2019-01-30T05:40:05.141Z,3.20
2019-01-30T05:42:31.187Z,3.20
2019-01-30T05:44:57.267Z,3.20
2019-01-30T05:47:23.306Z,3.20
2019-01-30T05:49:49.357Z,3.20
2019-01-30T05:52:15.492Z,3.20
2019-01-30T05:54:41.537Z,3.20
2019-01-30T05:57:07.576Z,3.20
2019-01-30T05:59:33.961Z,3.20
2019-01-30T06:01:59.995Z,3.20
2019-01-30T06:04:26.036Z,3.30
2019-01-30T06:06:52.105Z,3.30
2019-01-30T06:09:18.248Z,3.20
2019-01-30T06:11:44.367Z,3.30
2019-01-30T06:14:10.435Z,3.30
2019-01-30T06:16:36.728Z,3.30
2019-01-30T06:19:03.078Z,3.30
2019-01-30T06:21:29.131Z,3.20
2019-01-30T06:23:55.172Z,3.30
2019-01-30T06:26:21.204Z,3.20
2019-01-30T06:28:47.276Z,3.20
2019-01-30T06:31:13.452Z,3.20
2019-01-30T06:33:39.592Z,3.20
2019-01-30T06:36:05.643Z,3.20
2019-01-30T06:38:31.686Z,3.20
2019-01-30T06:40:57.829Z,3.20
2019-01-30T06:43:23.872Z,3.20
2019-01-30T06:45:49.920Z,3.20
2019-01-30T06:48:16.076Z,3.20
2019-01-30T06:50:42.111Z,3.20
2019-01-30T06:53:08.160Z,3.20
2019-01-30T06:55:34.207Z,3.20
2019-01-30T06:58:00.567Z,3.20
2019-01-30T07:00:26.674Z,3.20
2019-01-30T07:02:54.149Z,3.20
2019-01-30T07:05:20.250Z,3.20
2019-01-30T07:07:46.317Z,3.20
2019-01-30T07:10:15.074Z,3.20
2019-01-30T07:12:41.213Z,3.20
2019-01-30T07:15:07.835Z,3.30
2019-01-30T07:17:33.883Z,3.30
2019-01-30T07:19:59.927Z,3.20
2019-01-30T07:22:25.987Z,3.30
2019-01-30T07:24:52.040Z,3.30
2019-01-30T07:27:18.079Z,3.30
2019-01-30T07:29:44.184Z,3.30
2019-01-30T07:32:10.223Z,3.20
2019-01-30T07:34:36.291Z,3.20
2019-01-30T07:37:02.985Z,3.30
2019-01-30T07:39:29.026Z,3.30
2019-01-30T07:41:55.074Z,3.30
2019-01-30T07:44:21.117Z,3.30
2019-01-30T07:46:47.159Z,3.30
2019-01-30T07:49:13.217Z,3.30
2019-01-30T07:51:39.259Z,3.40
2019-01-30T07:54:05.301Z,3.40
2019-01-30T07:56:31.358Z,3.40
2019-01-30T07:58:57.397Z,3.40
2019-01-30T08:01:23.539Z,3.40
2019-01-30T08:03:49.614Z,3.40
2019-01-30T08:06:15.652Z,3.40
2019-01-30T08:08:41.692Z,3.40
2019-01-30T08:11:07.740Z,3.50
2019-01-30T08:13:33.782Z,3.50
2019-01-30T08:15:59.840Z,3.50
2019-01-30T08:18:25.875Z,3.50
2019-01-30T08:20:51.915Z,3.60
2019-01-30T08:23:18.200Z,3.60
2019-01-30T08:25:44.446Z,3.60
2019-01-30T08:28:10.910Z,3.60
2019-01-30T08:30:37.024Z,3.60
2019-01-30T08:33:05.516Z,3.70
2019-01-30T08:35:32.238Z,3.70
2019-01-30T08:37:58.311Z,3.70
2019-01-30T08:40:24.432Z,3.70
2019-01-30T08:42:52.280Z,3.70
2019-01-30T08:45:23.995Z,3.70
2019-01-30T08:47:50.256Z,3.80
2019-01-30T08:50:16.295Z,3.80
2019-01-30T08:52:42.363Z,3.80
2019-01-30T08:55:10.299Z,3.80
2019-01-30T08:57:36.447Z,3.80
2019-01-30T09:00:09.659Z,3.90
2019-01-30T09:02:35.700Z,3.90
2019-01-30T09:05:02.538Z,3.90
2019-01-30T09:07:28.600Z,4.00
2019-01-30T09:09:54.987Z,4.10
2019-01-30T09:12:21.015Z,4.10
2019-01-30T09:14:47.071Z,4.10
2019-01-30T09:17:13.107Z,4.20
2019-01-30T09:19:39.155Z,4.20
2019-01-30T09:22:05.208Z,4.20
2019-01-30T09:24:31.246Z,4.30
2019-01-30T09:26:57.285Z,4.30
2019-01-30T09:29:23.351Z,4.30
2019-01-30T09:31:49.393Z,4.40
2019-01-30T09:34:15.435Z,4.50
2019-01-30T09:36:41.499Z,4.50
2019-01-30T09:39:07.959Z,4.60
2019-01-30T09:41:34.099Z,4.60
2019-01-30T09:44:00.147Z,4.70
2019-01-30T09:46:26.199Z,4.70
2019-01-30T09:49:12.388Z,4.70
2019-01-30T09:51:38.433Z,4.80
2019-01-30T09:54:04.475Z,4.90
2019-01-30T09:56:30.542Z,4.90
2019-01-30T09:58:56.871Z,4.90
2019-01-30T10:01:23.012Z,5.00
2019-01-30T10:03:49.059Z,5.00
2019-01-30T10:06:15.420Z,5.10
2019-01-30T10:08:41.460Z,5.10
2019-01-30T10:11:07.519Z,5.10
2019-01-30T10:13:33.556Z,5.20
2019-01-30T10:15:59.599Z,5.20
2019-01-30T10:18:25.948Z,5.20
2019-01-30T10:20:51.987Z,5.20
2019-01-30T10:23:18.031Z,5.20
2019-01-30T10:25:44.188Z,5.20
2019-01-30T10:28:16.862Z,5.30
2019-01-30T10:30:43.762Z,5.30
2019-01-30T10:33:09.827Z,5.30
2019-01-30T10:35:35.863Z,5.30
2019-01-30T10:38:02.431Z,5.40
2019-01-30T10:40:28.473Z,5.40
2019-01-30T10:42:57.244Z,5.40
2019-01-30T10:45:23.567Z,5.40
2019-01-30T10:47:49.638Z,5.50
2019-01-30T10:50:18.782Z,5.50
2019-01-30T10:52:44.867Z,5.50
2019-01-30T10:55:14.212Z,5.50
2019-01-30T10:57:40.569Z,5.60
2019-01-30T11:00:10.614Z,5.60
2019-01-30T11:02:36.666Z,5.70
2019-01-30T11:05:06.508Z,5.70
2019-01-30T11:07:32.581Z,5.80
2019-01-30T11:09:58.619Z,5.80
2019-01-30T11:12:24.971Z,5.90
2019-01-30T11:14:51.008Z,5.90
2019-01-30T11:17:17.056Z,6.00
2019-01-30T11:19:45.397Z,6.00
2019-01-30T11:22:11.044Z,6.10
2019-01-30T11:24:37.098Z,6.10
2019-01-30T11:27:03.439Z,6.10
2019-01-30T11:29:29.796Z,6.20
2019-01-30T11:31:55.835Z,6.20
2019-01-30T11:34:21.876Z,6.20
2019-01-30T11:36:47.940Z,6.30
2019-01-30T11:39:13.978Z,6.30
2019-01-30T11:41:40.015Z,6.40
2019-01-30T11:44:06.339Z,6.40
2019-01-30T11:46:32.387Z,6.40
2019-01-30T11:48:58.439Z,6.50
2019-01-30T11:51:24.475Z,6.50
2019-01-30T11:53:50.841Z,6.50
2019-01-30T11:56:16.886Z,6.50
2019-01-30T11:58:42.940Z,6.50
2019-01-30T12:01:08.984Z,6.60
2019-01-30T12:03:35.031Z,6.60
2019-01-30T12:06:01.480Z,6.60
2019-01-30T12:08:27.631Z,6.60
2019-01-30T12:10:53.927Z,6.60
2019-01-30T12:13:19.971Z,6.60
2019-01-30T12:15:46.043Z,6.60
2019-01-30T12:18:12.159Z,6.60
2019-01-30T12:20:38.327Z,6.60
2019-01-30T12:23:04.773Z,6.60
2019-01-30T12:25:30.812Z,6.70
2019-01-30T12:27:56.863Z,6.70
2019-01-30T12:30:26.203Z,6.70
2019-01-30T12:32:52.255Z,6.70
2019-01-30T12:35:18.547Z,6.70
2019-01-30T12:37:44.735Z,6.70
2019-01-30T12:40:16.091Z,6.70
2019-01-30T12:42:42.551Z,6.70
2019-01-30T12:45:14.668Z,6.70
2019-01-30T12:47:40.731Z,6.60
2019-01-30T12:50:07.657Z,6.60
2019-01-30T12:52:33.812Z,6.60
2019-01-30T12:54:59.851Z,6.60
2019-01-30T12:57:25.906Z,6.60
2019-01-30T12:59:52.308Z,6.50
2019-01-30T13:02:18.361Z,6.50
2019-01-30T13:04:44.388Z,6.60
2019-01-30T13:07:10.689Z,6.60
2019-01-30T13:09:36.824Z,6.60
2019-01-30T13:12:03.179Z,6.60
2019-01-30T13:14:29.220Z,6.70
2019-01-30T13:16:55.284Z,6.70
2019-01-30T13:19:21.327Z,6.70
2019-01-30T13:21:47.378Z,6.70
2019-01-30T13:24:13.864Z,6.60
2019-01-30T13:26:39.919Z,6.60
2019-01-30T13:29:05.960Z,6.60
2019-01-30T13:31:32.011Z,6.60
2019-01-30T13:33:58.050Z,6.50
2019-01-30T13:36:24.099Z,6.50
2019-01-30T13:38:50.141Z,6.50
2019-01-30T13:41:16.187Z,6.50
2019-01-30T13:43:42.228Z,6.50
2019-01-30T13:46:08.287Z,6.50
2019-01-30T13:48:34.337Z,6.60
2019-01-30T13:51:00.409Z,6.60
2019-01-30T13:53:26.551Z,6.70
2019-01-30T13:55:52.672Z,6.70
2019-01-30T13:58:18.711Z,6.70
2019-01-30T14:00:44.859Z,6.80
2019-01-30T14:03:10.931Z,6.80
2019-01-30T14:05:37.513Z,6.80
2019-01-30T14:08:04.250Z,6.90
2019-01-30T14:10:30.590Z,6.90
2019-01-30T14:12:56.726Z,6.80
2019-01-30T14:15:29.988Z,6.90
2019-01-30T14:17:56.322Z,6.80
2019-01-30T14:20:22.411Z,6.80
2019-01-30T14:22:48.779Z,6.80
2019-01-30T14:25:15.414Z,6.80
2019-01-30T14:27:41.469Z,6.80
2019-01-30T14:30:14.195Z,6.80
2019-01-30T14:32:40.253Z,6.80
2019-01-30T14:35:10.822Z,6.80
2019-01-30T14:37:35.955Z,6.80
2019-01-30T14:40:07.925Z,6.80
2019-01-30T14:42:34.372Z,6.80
2019-01-30T14:45:00.499Z,6.70
2019-01-30T14:47:26.557Z,6.80
2019-01-30T14:49:52.937Z,6.70
2019-01-30T14:52:19.033Z,6.70
2019-01-30T14:54:45.149Z,6.60
2019-01-30T14:57:11.200Z,6.60
2019-01-30T14:59:37.542Z,6.50
2019-01-30T15:02:03.624Z,6.50
2019-01-30T15:04:29.722Z,6.40
2019-01-30T15:06:55.876Z,6.40
2019-01-30T15:09:22.242Z,6.30
2019-01-30T15:11:48.434Z,6.20
2019-01-30T15:14:14.563Z,6.20
2019-01-30T15:16:40.728Z,6.10
2019-01-30T15:19:07.359Z,6.10
2019-01-30T15:21:33.690Z,6.10
2019-01-30T15:23:59.751Z,6.00
2019-01-30T15:26:26.153Z,6.00
2019-01-30T15:28:52.202Z,6.00
2019-01-30T15:31:18.239Z,6.00
2019-01-30T15:33:44.287Z,5.90
2019-01-30T15:36:10.334Z,5.90
2019-01-30T15:38:36.478Z,5.90
2019-01-30T15:41:02.943Z,5.90
2019-01-30T15:43:29.036Z,5.80
2019-01-30T15:45:55.067Z,5.80
2019-01-30T15:48:21.132Z,5.80
2019-01-30T15:50:47.500Z,5.80
2019-01-30T15:53:14.257Z,5.80
2019-01-30T15:55:40.618Z,5.70
2019-01-30T15:58:08.759Z,5.70
2019-01-30T16:00:38.840Z,5.70
2019-01-30T16:03:05.678Z,5.70
2019-01-30T16:05:31.918Z,5.70
2019-01-30T16:07:58.264Z,5.70
2019-01-30T16:10:24.320Z,5.70
2019-01-30T16:12:50.351Z,5.70
2019-01-30T16:15:22.859Z,5.70
2019-01-30T16:17:48.919Z,5.60
2019-01-30T16:20:15.273Z,5.60
2019-01-30T16:22:41.312Z,5.60
2019-01-30T16:25:09.580Z,5.60
2019-01-30T16:27:35.813Z,5.60
2019-01-30T16:30:05.682Z,5.60
2019-01-30T16:32:31.743Z,5.60
2019-01-30T16:34:57.775Z,5.60
2019-01-30T16:37:24.259Z,5.60
2019-01-30T16:39:50.603Z,5.60
2019-01-30T16:42:16.645Z,5.50
2019-01-30T16:44:42.683Z,5.60
2019-01-30T16:47:08.752Z,5.60
2019-01-30T16:49:34.787Z,5.50
2019-01-30T16:52:00.847Z,5.60
2019-01-30T16:54:27.006Z,5.50
2019-01-30T16:56:53.287Z,5.50
2019-01-30T16:59:19.328Z,5.50
2019-01-30T17:01:45.390Z,5.50
2019-01-30T17:04:11.426Z,5.50
2019-01-30T17:06:37.464Z,5.50
2019-01-30T17:09:05.725Z,5.50
2019-01-30T17:11:31.755Z,5.40
2019-01-30T17:13:57.796Z,5.40
2019-01-30T17:16:23.852Z,5.40
2019-01-30T17:18:49.890Z,5.40
2019-01-30T17:21:15.931Z,5.40
2019-01-30T17:23:41.987Z,5.30
2019-01-30T17:26:08.128Z,5.30
2019-01-30T17:28:34.443Z,5.30
2019-01-30T17:31:01.612Z,5.20
2019-01-30T17:33:27.655Z,5.30
2019-01-30T17:35:53.696Z,5.20
2019-01-30T17:38:39.635Z,5.20
2019-01-30T17:41:05.783Z,5.30
2019-01-30T17:43:31.832Z,5.20
2019-01-30T17:45:57.883Z,5.20
2019-01-30T17:48:23.923Z,5.20
2019-01-30T17:50:49.988Z,5.10
2019-01-30T17:53:16.038Z,5.10
2019-01-30T17:55:42.083Z,5.10
2019-01-30T17:58:08.731Z,5.10
2019-01-30T18:00:46.803Z,5.10
2019-01-30T18:03:13.107Z,5.00
2019-01-30T18:05:39.145Z,5.10
2019-01-30T18:08:05.199Z,5.00
2019-01-30T18:10:31.235Z,5.00
2019-01-30T18:12:57.415Z,5.00
2019-01-30T18:15:23.626Z,5.00
2019-01-30T18:17:49.696Z,5.00
2019-01-30T18:20:17.347Z,5.00
2019-01-30T18:22:44.571Z,5.00
2019-01-30T18:25:13.559Z,4.90
2019-01-30T18:27:39.600Z,4.90
2019-01-30T18:30:09.351Z,5.00
2019-01-30T18:32:35.643Z,5.00
2019-01-30T18:35:01.979Z,4.90
2019-01-30T18:37:34.595Z,4.90
2019-01-30T18:40:00.631Z,5.10
2019-01-30T18:42:26.675Z,4.90
2019-01-30T18:44:52.716Z,4.90
2019-01-30T18:47:18.756Z,4.90
2019-01-30T18:49:44.803Z,4.90
2019-01-30T18:52:10.848Z,4.90
2019-01-30T18:54:36.899Z,4.80
2019-01-30T18:57:03.343Z,4.80
2019-01-30T18:59:29.402Z,4.80
2019-01-30T19:01:55.733Z,4.80
2019-01-30T19:04:21.767Z,4.80
2019-01-30T19:06:52.556Z,4.80
2019-01-30T19:09:15.767Z,4.80
2019-01-30T19:11:41.804Z,4.80
2019-01-30T19:14:07.863Z,4.80
2019-01-30T19:16:33.923Z,4.80
2019-01-30T19:18:59.959Z,4.80
2019-01-30T19:21:26.108Z,4.80
2019-01-30T19:23:52.147Z,4.80
2019-01-30T19:26:18.199Z,4.80
2019-01-30T19:28:44.240Z,4.80
2019-01-30T19:31:10.503Z,4.80
2019-01-30T19:33:36.543Z,4.80
2019-01-30T19:36:02.693Z,4.80
2019-01-30T19:38:28.740Z,4.70
2019-01-30T19:40:54.781Z,4.80
2019-01-30T19:43:21.103Z,4.70
2019-01-30T19:45:47.167Z,4.70
2019-01-30T19:48:13.286Z,4.70
2019-01-30T19:50:39.329Z,4.70
2019-01-30T19:53:05.781Z,4.70
2019-01-30T19:55:31.980Z,4.70
2019-01-30T19:57:58.019Z,4.70
2019-01-30T20:00:33.400Z,4.70
2019-01-30T20:03:01.046Z,4.70
2019-01-30T20:05:27.087Z,4.70
2019-01-30T20:07:53.246Z,4.70
2019-01-30T20:10:22.491Z,4.70
2019-01-30T20:12:48.537Z,4.70
2019-01-30T20:15:14.906Z,4.70
2019-01-30T20:17:40.947Z,4.70
2019-01-30T20:20:15.411Z,4.70
2019-01-30T20:22:41.667Z,4.70
2019-01-30T20:25:14.511Z,4.80
2019-01-30T20:27:40.553Z,4.70
2019-01-30T20:30:10.411Z,4.70
2019-01-30T20:32:36.464Z,4.70
2019-01-30T20:35:04.959Z,4.70
2019-01-30T20:37:30.991Z,4.70
2019-01-30T20:39:57.027Z,4.80
2019-01-30T20:42:23.091Z,4.80
2019-01-30T20:44:49.131Z,4.80
2019-01-30T20:47:15.181Z,4.70
2019-01-30T20:49:41.221Z,4.70
2019-01-30T20:52:07.284Z,4.80
2019-01-30T20:54:33.330Z,4.70
2019-01-30T20:56:59.371Z,4.80
2019-01-30T20:59:25.433Z,4.80
2019-01-30T21:01:51.712Z,4.80
2019-01-30T21:04:17.755Z,4.70
2019-01-30T21:06:43.811Z,4.80
2019-01-30T21:09:09.851Z,4.70
2019-01-30T21:11:35.891Z,4.70
2019-01-30T21:14:01.947Z,4.70
2019-01-30T21:16:28.015Z,4.70
2019-01-30T21:18:54.067Z,4.70
2019-01-30T21:21:20.107Z,4.70
2019-01-30T21:23:46.159Z,4.70
2019-01-30T21:26:12.236Z,4.70
2019-01-30T21:28:38.284Z,4.70
2019-01-30T21:31:04.333Z,4.70
2019-01-30T21:33:30.384Z,4.70
2019-01-30T21:35:56.428Z,4.70
2019-01-30T21:38:22.467Z,4.70
2019-01-30T21:40:48.803Z,4.70
2019-01-30T21:43:15.039Z,4.60
2019-01-30T21:45:41.093Z,4.60
2019-01-30T21:48:07.160Z,4.60
2019-01-30T21:50:33.507Z,4.60
2019-01-30T21:52:59.666Z,4.70
2019-01-30T21:55:25.783Z,4.70
2019-01-30T21:57:52.195Z,4.60
2019-01-30T22:00:22.073Z,4.70
2019-01-30T22:02:48.131Z,4.60
2019-01-30T22:05:14.763Z,4.60
2019-01-30T22:07:40.828Z,4.70
2019-01-30T22:10:13.535Z,4.70
2019-01-30T22:12:39.575Z,4.60
2019-01-30T22:15:08.862Z,4.60
2019-01-30T22:17:35.224Z,4.70
2019-01-30T22:20:01.563Z,4.70
2019-01-30T22:22:29.421Z,4.70
2019-01-30T22:24:55.855Z,4.70
2019-01-30T22:27:21.928Z,4.70
2019-01-30T22:29:47.981Z,4.70
2019-01-30T22:32:14.015Z,4.70
2019-01-30T22:34:40.075Z,4.70
2019-01-30T22:37:06.123Z,4.60
2019-01-30T22:39:32.187Z,4.70
2019-01-30T22:41:58.232Z,4.60
2019-01-30T22:44:24.301Z,4.60
2019-01-30T22:46:50.387Z,4.60
2019-01-30T22:49:16.537Z,4.50
2019-01-30T22:51:42.576Z,4.50
2019-01-30T22:54:08.619Z,4.50
2019-01-30T22:56:34.684Z,4.40
2019-01-30T22:59:00.735Z,4.50
2019-01-30T23:01:36.665Z,4.30
2019-01-30T23:04:09.303Z,4.30
2019-01-30T23:06:57.556Z,4.30
2019-01-30T23:09:39.767Z,4.20
2019-01-30T23:12:09.640Z,4.20
2019-01-30T23:14:39.493Z,4.10
2019-01-30T23:17:24.613Z,4.10
2019-01-30T23:19:54.543Z,4.10
2019-01-30T23:22:27.163Z,4.00
2019-01-30T23:25:05.880Z,4.00
2019-01-30T23:27:36.100Z,3.90
2019-01-30T23:30:22.719Z,3.90
2019-01-30T23:33:17.196Z,3.80
2019-01-30T23:36:04.959Z,3.80
2019-01-30T23:38:49.484Z,3.70
2019-01-30T23:41:31.339Z,3.70
2019-01-30T23:44:02.151Z,3.70
2019-01-30T23:46:46.931Z,3.60
2019-01-30T23:49:33.728Z,3.60
2019-01-30T23:52:06.575Z,3.60
2019-01-30T23:54:39.067Z,3.50
2019-01-30T23:57:12.395Z,3.50
